Time;durP1;ratioP1;P1;durP2;ratioP2;P2;SDS_P1;SDS_P2;PMS_P1;PMS_P2;Temp;Humidity;BMP_temperature;BMP_pressure;BME280_temperature;BME280_humidity;BME280_pressure;Samples;Min_cycle;Max_cycle;Signal;HPM_P1;HPM_P2
2022/05/08 00:02:18;;;;;;;6.35;5.07;;;16.20;99.90;;;;;;5070306;28;20259;-78
2022/05/08 00:04:49;;;;;;;4.93;4.43;;;16.30;99.90;;;;;;5070420;28;20210;-77
2022/05/08 00:07:17;;;;;;;7.95;3.95;;;16.30;99.90;;;;;;5070390;28;20233;-74
2022/05/08 00:09:44;;;;;;;6.78;4.38;;;16.20;99.90;;;;;;5070873;28;20233;-74
2022/05/08 00:12:13;;;;;;;4.50;4.10;;;16.10;99.90;;;;;;5070348;28;20251;-75
2022/05/08 00:14:41;;;;;;;8.63;4.85;;;16.20;99.90;;;;;;5070625;28;20665;-69
2022/05/08 00:17:11;;;;;;;6.05;4.95;;;16.10;99.90;;;;;;5070165;28;20248;-69
2022/05/08 00:19:38;;;;;;;5.13;3.38;;;16.20;99.90;;;;;;5070420;28;20244;-73
2022/05/08 00:22:06;;;;;;;4.75;3.83;;;16.10;99.90;;;;;;5071006;28;20258;-70
2022/05/08 00:24:34;;;;;;;4.40;3.97;;;16.10;99.90;;;;;;5070925;28;20290;-67
2022/05/08 00:27:01;;;;;;;4.40;3.85;;;16.00;99.90;;;;;;5070571;28;20198;-67
2022/05/08 00:29:30;;;;;;;4.85;3.72;;;15.90;99.90;;;;;;5070093;28;20206;-67
2022/05/08 00:31:57;;;;;;;4.88;3.40;;;15.90;99.90;;;;;;5070286;28;20271;-67
2022/05/08 00:34:24;;;;;;;4.50;3.90;;;15.80;99.90;;;;;;5070230;28;20206;-67
2022/05/08 00:36:51;;;;;;;4.10;3.67;;;15.80;99.90;;;;;;5070425;28;20268;-76
2022/05/08 00:39:18;;;;;;;5.55;4.57;;;15.80;99.90;;;;;;5069974;28;20647;-73
2022/05/08 00:41:45;;;;;;;3.03;2.72;;;15.90;99.90;;;;;;5070238;28;20957;-74
2022/05/08 00:44:12;;;;;;;6.50;3.30;;;15.90;99.90;;;;;;5069665;28;20225;-76
2022/05/08 00:46:41;;;;;;;3.78;3.30;;;15.90;99.90;;;;;;5070285;28;20205;-76
2022/05/08 00:49:08;;;;;;;3.40;2.97;;;15.90;99.90;;;;;;5069959;28;20271;-72
2022/05/08 00:51:36;;;;;;;4.18;2.97;;;15.90;99.90;;;;;;5070535;28;20202;-77
2022/05/08 00:54:04;;;;;;;4.25;2.80;;;16.00;99.90;;;;;;5070577;28;20301;-69
2022/05/08 00:56:32;;;;;;;4.20;3.10;;;16.00;99.90;;;;;;5070033;28;20631;-67
2022/05/08 00:58:59;;;;;;;3.35;3.03;;;16.00;99.90;;;;;;5069978;28;20292;-67
2022/05/08 01:01:26;;;;;;;6.43;3.38;;;16.00;99.90;;;;;;5072013;28;20210;-68
2022/05/08 01:03:54;;;;;;;4.80;3.03;;;16.00;99.90;;;;;;5074058;28;20248;-68
2022/05/08 01:06:22;;;;;;;3.00;2.60;;;16.00;99.90;;;;;;5073526;28;20206;-67
2022/05/08 01:08:50;;;;;;;2.97;2.42;;;16.00;99.90;;;;;;5073740;28;20214;-69
2022/05/08 01:11:18;;;;;;;3.53;2.95;;;16.00;99.90;;;;;;5073216;28;20206;-67
2022/05/08 01:13:46;;;;;;;3.00;2.67;;;16.00;99.90;;;;;;5073644;28;20735;-67
2022/05/08 01:16:15;;;;;;;3.28;2.85;;;16.00;99.90;;;;;;5072935;28;20260;-69
2022/05/08 01:18:43;;;;;;;2.65;2.28;;;15.80;99.90;;;;;;5073529;28;20202;-67
2022/05/08 01:21:16;;;;;;;3.90;2.33;;;15.80;99.90;;;;;;5073218;28;20240;-68
2022/05/08 01:23:44;;;;;;;6.10;4.63;;;15.80;99.90;;;;;;5073573;28;20206;-77
2022/05/08 01:26:12;;;;;;;2.90;2.53;;;15.70;99.90;;;;;;5073102;28;20722;-76
2022/05/08 01:28:39;;;;;;;5.88;2.47;;;15.70;99.90;;;;;;5073564;28;20206;-77
2022/05/08 01:31:06;;;;;;;2.70;2.25;;;15.60;99.90;;;;;;5073373;28;20202;-73
2022/05/08 01:33:33;;;;;;;3.00;2.25;;;15.60;99.90;;;;;;5074007;28;20205;-80
2022/05/08 01:36:01;;;;;;;2.78;2.58;;;15.60;99.90;;;;;;5073477;28;20206;-76
2022/05/08 01:38:28;;;;;;;3.55;1.95;;;15.60;99.90;;;;;;5072890;28;20740;-78
2022/05/08 01:41:03;;;;;;;4.35;2.38;;;15.60;99.90;;;;;;5073312;28;20234;-69
2022/05/08 01:43:32;;;;;;;5.47;2.60;;;15.50;99.90;;;;;;5072677;28;20631;-78
2022/05/08 01:45:59;;;;;;;2.83;2.63;;;15.50;99.90;;;;;;5073103;28;20259;-69
2022/05/08 01:48:26;;;;;;;3.70;2.80;;;15.40;99.90;;;;;;5072879;28;20210;-75
2022/05/08 01:50:55;;;;;;;4.13;2.90;;;15.40;99.90;;;;;;5073021;28;20294;-68
2022/05/08 01:53:25;;;;;;;3.30;3.00;;;15.30;99.90;;;;;;5072646;28;20206;-68
2022/05/08 01:55:54;;;;;;;4.65;3.58;;;15.30;99.90;;;;;;5071973;28;20232;-68
2022/05/08 01:58:24;;;;;;;3.83;3.30;;;15.20;99.90;;;;;;5052024;28;20207;-68
2022/05/08 02:00:51;;;;;;;5.43;3.50;;;15.20;99.90;;;;;;5052578;28;20234;-68
2022/05/08 02:03:20;;;;;;;3.78;3.35;;;15.20;99.90;;;;;;5052358;28;20329;-67
2022/05/08 02:05:47;;;;;;;4.60;3.83;;;15.20;99.90;;;;;;5053028;28;20264;-67
2022/05/08 02:08:15;;;;;;;3.65;3.17;;;15.20;99.90;;;;;;5052098;28;20677;-75
2022/05/08 02:10:42;;;;;;;4.57;4.10;;;15.10;99.90;;;;;;5052613;28;20736;-77
2022/05/08 02:13:11;;;;;;;5.53;4.43;;;15.10;99.90;;;;;;5051365;28;20203;-74
2022/05/08 02:15:40;;;;;;;7.63;4.43;;;15.10;99.90;;;;;;5052509;28;20207;-77
2022/05/08 02:18:09;;;;;;;6.15;4.97;;;15.00;99.90;;;;;;5052466;28;20207;-74
2022/05/08 02:20:39;;;;;;;5.55;5.05;;;15.00;99.90;;;;;;5052596;28;20230;-71
2022/05/08 02:23:06;;;;;;;4.70;3.97;;;14.90;99.90;;;;;;5052917;28;20199;-71
2022/05/08 02:25:33;;;;;;;5.88;4.25;;;15.00;99.90;;;;;;5052801;28;20234;-70
2022/05/08 02:28:00;;;;;;;7.53;4.63;;;15.00;99.90;;;;;;5052330;28;20245;-72
2022/05/08 02:30:27;;;;;;;8.55;5.20;;;14.90;99.90;;;;;;5051866;28;20211;-70
2022/05/08 02:32:57;;;;;;;7.15;5.45;;;14.90;99.90;;;;;;5052202;28;20626;-67
2022/05/08 02:35:24;;;;;;;6.45;5.00;;;14.90;99.90;;;;;;5051840;28;20209;-67
2022/05/08 02:37:53;;;;;;;7.57;5.07;;;14.90;99.90;;;;;;5052045;28;20579;-68
2022/05/08 02:40:22;;;;;;;7.50;6.03;;;14.80;99.90;;;;;;5051656;28;20243;-67
2022/05/08 02:42:49;;;;;;;5.88;5.28;;;14.80;99.90;;;;;;5051798;28;20213;-67
2022/05/08 02:45:16;;;;;;;9.00;6.00;;;14.70;99.90;;;;;;5051545;28;20625;-67
2022/05/08 02:47:43;;;;;;;4.97;4.45;;;14.80;99.90;;;;;;5052189;28;20207;-67
2022/05/08 02:50:12;;;;;;;6.30;4.60;;;14.80;99.90;;;;;;5051610;28;20282;-68
2022/05/08 02:52:39;;;;;;;6.97;5.63;;;14.90;99.90;;;;;;5051943;28;20732;-80
2022/05/08 03:00:43;;;;;;;9.25;5.40;;;14.70;99.90;;;;;;5041187;28;20235;-73
2022/05/08 03:03:11;;;;;;;8.80;5.35;;;14.80;99.90;;;;;;5051376;28;20614;-73
2022/05/08 03:05:42;;;;;;;6.28;5.60;;;14.70;99.90;;;;;;5051587;28;20203;-74
2022/05/08 03:08:09;;;;;;;9.48;6.18;;;14.80;99.90;;;;;;5050955;28;20203;-72
2022/05/08 03:13:17;;;;;;;7.22;5.45;;;14.90;99.90;;;;;;5050582;28;20277;-74
2022/05/08 03:15:44;;;;;;;6.80;5.25;;;14.90;99.90;;;;;;5051551;28;20203;-67
2022/05/08 03:18:11;;;;;;;6.68;5.55;;;14.90;99.90;;;;;;5051083;28;20207;-67
2022/05/08 03:20:40;;;;;;;7.65;6.90;;;14.80;99.90;;;;;;5050992;28;20284;-66
2022/05/08 03:23:08;;;;;;;13.38;6.32;;;14.80;99.90;;;;;;5051681;28;20206;-67
2022/05/08 03:25:35;;;;;;;8.07;5.60;;;14.70;99.90;;;;;;5051937;28;20277;-68
2022/05/08 03:28:03;;;;;;;7.90;6.00;;;14.60;99.90;;;;;;5051693;28;20235;-68
2022/05/08 03:30:30;;;;;;;7.05;5.93;;;14.70;99.90;;;;;;5050781;28;20211;-68
2022/05/08 03:32:58;;;;;;;7.35;5.78;;;14.60;99.90;;;;;;5051045;28;20214;-67
2022/05/08 03:35:25;;;;;;;7.72;6.55;;;14.60;99.90;;;;;;5050901;28;20210;-68
2022/05/08 03:37:53;;;;;;;6.72;6.03;;;14.70;99.90;;;;;;5051052;28;20260;-73
2022/05/08 03:40:20;;;;;;;7.43;5.75;;;14.60;99.90;;;;;;5050453;28;20226;-74
2022/05/08 03:42:47;;;;;;;8.60;6.20;;;14.50;99.90;;;;;;5051068;28;20202;-74
2022/05/08 03:45:14;;;;;;;7.25;5.97;;;14.50;99.90;;;;;;5050572;28;20609;-74
2022/05/08 03:47:41;;;;;;;7.20;6.15;;;14.40;99.90;;;;;;5050936;28;20569;-72
2022/05/08 03:50:10;;;;;;;11.48;5.63;;;14.50;99.90;;;;;;5050430;28;20702;-69
2022/05/08 03:52:36;;;;;;;11.85;6.00;;;14.50;99.90;;;;;;5051070;28;20256;-67
2022/05/08 03:55:06;;;;;;;6.72;6.03;;;14.50;99.90;;;;;;5050973;28;20252;-72
2022/05/08 03:57:33;;;;;;;7.18;5.50;;;14.50;99.90;;;;;;5051072;28;20203;-74
2022/05/08 04:00:00;;;;;;;7.30;6.00;;;14.50;99.90;;;;;;5050662;28;20260;-76
2022/05/08 04:02:27;;;;;;;7.82;6.22;;;14.40;99.90;;;;;;5050714;28;20202;-81
2022/05/08 04:04:54;;;;;;;7.00;5.40;;;14.40;99.90;;;;;;5051148;28;20207;-67
2022/05/08 04:07:21;;;;;;;9.20;5.82;;;14.20;99.90;;;;;;5050132;28;20699;-68
2022/05/08 04:09:48;;;;;;;9.20;4.70;;;14.20;99.90;;;;;;5050525;28;20202;-68
2022/05/08 04:12:17;;;;;;;9.18;5.45;;;14.10;99.90;;;;;;5050389;28;20206;-68
2022/05/08 04:14:44;;;;;;;9.27;5.65;;;14.10;99.90;;;;;;5050338;28;20737;-68
2022/05/08 04:17:09;;;;;;;7.88;6.05;;;14.10;99.90;;;;;;5050500;28;20256;-68
2022/05/08 04:19:37;;;;;;;9.70;7.28;;;14.10;99.90;;;;;;5050932;28;20210;-68
2022/05/08 04:24:49;;;;;;;7.75;5.90;;;14.10;99.90;;;;;;5050573;28;20297;-77
2022/05/08 04:27:17;;;;;;;8.23;6.68;;;14.00;99.90;;;;;;5050185;28;20280;-76
2022/05/08 04:29:44;;;;;;;7.40;6.07;;;14.10;99.90;;;;;;5050856;28;20207;-74
2022/05/08 04:32:11;;;;;;;8.80;6.43;;;14.10;99.90;;;;;;5050173;28;20222;-76
2022/05/08 04:34:38;;;;;;;7.97;6.50;;;14.00;99.90;;;;;;5050676;28;20207;-75
2022/05/08 04:37:05;;;;;;;9.15;6.55;;;13.90;99.90;;;;;;5054152;28;20245;-75
2022/05/08 04:39:32;;;;;;;13.50;7.85;;;13.90;99.90;;;;;;5054143;28;20211;-76
2022/05/08 04:42:00;;;;;;;8.38;7.57;;;14.00;99.90;;;;;;5054473;28;20767;-77
2022/05/08 04:44:28;;;;;;;7.78;5.97;;;14.00;99.90;;;;;;5054043;28;20213;-77
2022/05/08 04:46:55;;;;;;;13.23;7.38;;;14.00;99.90;;;;;;5054325;28;20203;-77
2022/05/08 04:49:22;;;;;;;6.88;6.07;;;13.90;99.90;;;;;;5054066;28;20252;-77
2022/05/08 04:51:49;;;;;;;10.43;6.72;;;13.80;99.90;;;;;;5054377;28;20198;-76
2022/05/08 04:54:16;;;;;;;10.85;7.18;;;13.80;99.90;;;;;;5053574;28;20210;-77
2022/05/08 04:56:43;;;;;;;9.10;6.88;;;13.90;99.90;;;;;;5053980;28;20643;-68
2022/05/08 04:59:10;;;;;;;8.60;7.57;;;14.00;99.90;;;;;;5053838;28;20202;-68
2022/05/08 05:01:38;;;;;;;8.43;7.60;;;13.90;99.90;;;;;;5053702;28;20292;-69
2022/05/08 05:04:05;;;;;;;10.90;7.78;;;13.90;99.90;;;;;;5054272;28;20248;-68
2022/05/08 05:06:32;;;;;;;10.55;6.43;;;14.00;99.90;;;;;;5053675;28;20728;-75
2022/05/08 05:08:59;;;;;;;9.52;7.13;;;14.00;99.90;;;;;;5053652;28;20210;-74
2022/05/08 05:11:26;;;;;;;8.30;6.28;;;14.00;99.90;;;;;;5053618;28;20211;-75
2022/05/08 05:13:53;;;;;;;9.18;6.50;;;13.90;99.90;;;;;;5053968;28;20203;-71
2022/05/08 05:16:20;;;;;;;7.57;6.47;;;14.00;99.90;;;;;;5053442;28;20206;-72
2022/05/08 05:18:48;;;;;;;7.60;6.40;;;14.00;99.90;;;;;;5053731;28;20564;-74
2022/05/08 05:21:15;;;;;;;14.63;8.73;;;14.10;99.90;;;;;;5053310;28;20360;-75
2022/05/08 05:23:43;;;;;;;10.70;7.85;;;14.00;99.90;;;;;;5053556;28;20302;-75
2022/05/08 05:26:10;;;;;;;9.75;7.85;;;14.10;99.90;;;;;;5056401;28;20198;-72
2022/05/08 05:28:37;;;;;;;10.40;7.35;;;14.20;99.90;;;;;;5063843;28;20268;-74
2022/05/08 05:31:04;;;;;;;9.50;7.38;;;14.30;99.90;;;;;;5070821;28;20256;-73
2022/05/08 05:33:31;;;;;;;8.38;7.53;;;14.30;99.90;;;;;;5066536;28;20205;-70
2022/05/08 05:35:59;;;;;;;8.85;7.60;;;14.20;99.90;;;;;;5073122;28;20267;-73
2022/05/08 05:38:26;;;;;;;9.63;7.60;;;14.20;99.90;;;;;;5072053;28;20218;-74
2022/05/08 05:40:53;;;;;;;8.73;7.63;;;14.20;99.90;;;;;;5072906;28;20287;-67
2022/05/08 05:43:20;;;;;;;7.88;7.07;;;14.40;99.90;;;;;;5072836;28;20210;-68
2022/05/08 05:47:49;;;;;;;9.68;8.30;;;14.50;99.90;;;;;;5070682;28;20214;-67
2022/05/08 05:48:35;;;;;;;9.85;7.47;;;14.50;99.90;;;;;;5071828;28;20289;-67
2022/05/08 05:51:04;;;;;;;8.65;7.13;;;14.40;99.90;;;;;;5072591;28;20221;-68
2022/05/08 05:53:32;;;;;;;9.45;7.32;;;14.50;99.90;;;;;;5072831;28;20581;-77
2022/05/08 05:55:59;;;;;;;8.93;8.00;;;14.60;99.90;;;;;;5073143;28;20202;-80
2022/05/08 05:58:26;;;;;;;9.43;7.70;;;14.70;99.90;;;;;;5073034;28;20255;-80
2022/05/08 06:00:53;;;;;;;9.77;7.47;;;14.70;99.90;;;;;;5073117;28;20229;-68
2022/05/08 06:03:20;;;;;;;8.65;7.57;;;14.80;99.90;;;;;;5072880;28;20271;-74
2022/05/08 06:05:47;;;;;;;9.88;7.50;;;14.90;99.90;;;;;;5073117;28;20635;-81
2022/05/08 06:08:15;;;;;;;11.13;7.65;;;15.00;99.90;;;;;;5072745;28;20680;-67
2022/05/08 06:10:42;;;;;;;11.57;7.60;;;15.00;99.90;;;;;;5071025;28;20210;-77
2022/05/08 06:13:09;;;;;;;11.85;9.60;;;15.00;99.90;;;;;;5071244;28;20264;-75
2022/05/08 06:15:36;;;;;;;14.18;8.98;;;15.10;99.90;;;;;;5053954;28;20211;-85
2022/05/08 06:18:03;;;;;;;8.30;7.30;;;15.20;99.90;;;;;;5069715;28;20214;-73
2022/05/08 06:20:32;;;;;;;8.38;7.57;;;15.20;99.90;;;;;;5071719;28;20202;-81
2022/05/08 06:23:00;;;;;;;10.13;7.60;;;15.30;99.90;;;;;;5072930;28;20416;-81
2022/05/08 06:25:29;;;;;;;10.63;8.75;;;15.30;99.90;;;;;;5072337;28;20217;-81
2022/05/08 06:27:56;;;;;;;8.65;6.07;;;15.40;99.90;;;;;;5072636;28;20234;-80
2022/05/08 06:30:23;;;;;;;11.82;6.85;;;15.40;99.90;;;;;;5072056;28;20256;-71
2022/05/08 06:32:50;;;;;;;8.70;6.43;;;15.50;99.90;;;;;;5072534;28;20206;-70
2022/05/08 06:35:17;;;;;;;9.88;7.13;;;15.50;99.90;;;;;;5071705;28;20658;-69
2022/05/08 06:37:44;;;;;;;11.00;6.35;;;15.50;99.90;;;;;;5059620;28;20232;-75
2022/05/08 06:40:11;;;;;;;10.30;6.68;;;15.60;99.90;;;;;;5063293;28;20251;-72
2022/05/08 06:42:39;;;;;;;10.00;6.80;;;15.60;99.90;;;;;;5065121;28;20272;-74
2022/05/08 06:45:08;;;;;;;6.85;6.10;;;15.70;99.90;;;;;;5052259;28;20670;-71
2022/05/08 06:47:35;;;;;;;10.50;6.65;;;15.80;99.90;;;;;;5052404;28;20207;-72
2022/05/08 06:50:02;;;;;;;8.00;7.20;;;15.90;99.90;;;;;;5064014;28;20224;-79
2022/05/08 06:52:29;;;;;;;10.93;6.93;;;16.00;99.90;;;;;;5071481;28;20202;-78
2022/05/08 06:54:56;;;;;;;7.82;6.63;;;16.10;99.90;;;;;;5071729;28;20214;-79
2022/05/08 06:57:23;;;;;;;6.97;6.28;;;16.30;99.90;;;;;;5071691;28;20248;-80
2022/05/08 07:02:42;;;;;;;6.50;5.60;;;16.40;99.90;;;;;;5055092;28;20626;-72
2022/05/08 07:05:09;;;;;;;6.82;5.75;;;16.40;99.90;;;;;;5050143;28;20213;-70
2022/05/08 07:07:36;;;;;;;7.20;6.40;;;16.60;99.90;;;;;;5051874;28;20207;-69
2022/05/08 07:10:03;;;;;;;6.65;5.78;;;16.70;99.90;;;;;;5066519;28;20198;-71
2022/05/08 07:12:30;;;;;;;7.13;6.05;;;16.70;99.90;;;;;;5061476;28;20210;-68
2022/05/08 07:14:59;;;;;;;9.43;5.82;;;16.80;99.90;;;;;;5053090;28;20274;-69
2022/05/08 07:17:28;;;;;;;7.68;6.50;;;16.90;99.90;;;;;;5051219;28;20636;-69
2022/05/08 07:19:55;;;;;;;9.85;6.07;;;16.90;99.90;;;;;;5065584;28;20261;-71
2022/05/08 07:22:23;;;;;;;6.70;5.03;;;17.00;99.90;;;;;;5062574;28;20774;-76
2022/05/08 07:24:49;;;;;;;8.10;5.32;;;17.10;99.90;;;;;;5059264;28;20210;-72
2022/05/08 07:27:17;;;;;;;8.02;5.75;;;17.20;99.90;;;;;;5063347;28;20236;-72
2022/05/08 07:29:45;;;;;;;8.27;5.85;;;17.40;99.90;;;;;;5062474;28;20210;-71
2022/05/08 07:32:13;;;;;;;6.03;4.85;;;17.60;99.90;;;;;;5063449;28;20206;-72
2022/05/08 07:37:24;;;;;;;6.93;5.10;;;17.80;99.90;;;;;;5052400;28;20628;-71
2022/05/08 07:39:51;;;;;;;5.80;5.03;;;17.90;99.90;;;;;;5056647;28;20772;-70
2022/05/08 07:42:18;;;;;;;8.35;5.82;;;18.00;99.90;;;;;;5051752;28;20907;-71
2022/05/08 07:44:45;;;;;;;6.32;5.75;;;18.00;99.90;;;;;;5071077;28;20617;-71
2022/05/08 07:47:14;;;;;;;5.35;4.85;;;18.00;99.90;;;;;;5061368;28;20633;-71
2022/05/08 07:49:41;;;;;;;5.45;4.95;;;18.20;99.90;;;;;;5050825;28;20207;-70
2022/05/08 07:52:08;;;;;;;6.22;4.78;;;18.50;99.90;;;;;;5050848;28;20207;-70
2022/05/08 07:54:35;;;;;;;7.07;5.22;;;18.60;99.90;;;;;;5064171;28;20627;-71
2022/05/08 07:57:03;;;;;;;5.75;5.00;;;18.50;99.90;;;;;;5057653;28;20289;-74
2022/05/08 07:59:30;;;;;;;4.78;4.10;;;18.30;99.90;;;;;;5060892;28;20221;-73
2022/05/08 08:01:57;;;;;;;6.10;5.50;;;18.20;99.90;;;;;;5068127;28;20234;-70
2022/05/08 08:04:26;;;;;;;8.25;5.07;;;18.20;99.90;;;;;;5062249;28;20210;-70
2022/05/08 08:06:53;;;;;;;5.47;4.85;;;18.20;99.90;;;;;;5061873;28;20585;-79
2022/05/08 08:09:20;;;;;;;8.35;5.22;;;18.30;99.90;;;;;;5057510;28;20206;-78
2022/05/08 08:11:47;;;;;;;5.80;5.22;;;18.40;99.90;;;;;;5061230;28;20222;-81
2022/05/08 08:14:14;;;;;;;7.95;4.43;;;18.50;99.90;;;;;;5062138;28;20263;-76
2022/05/08 08:16:41;;;;;;;6.75;4.40;;;18.60;99.90;;;;;;5066382;28;20591;-77
2022/05/08 08:19:09;;;;;;;6.03;5.43;;;18.60;99.90;;;;;;5063686;28;20685;-77
2022/05/08 08:21:37;;;;;;;5.57;4.97;;;18.90;99.90;;;;;;5060389;28;20222;-78
2022/05/08 08:24:04;;;;;;;6.50;4.32;;;18.90;99.90;;;;;;5069591;28;20248;-79
2022/05/08 08:26:31;;;;;;;7.88;6.32;;;18.90;99.90;;;;;;5070185;28;20230;-79
2022/05/08 08:28:58;;;;;;;7.22;5.03;;;19.10;99.90;;;;;;5070262;28;20239;-76
2022/05/08 08:31:25;;;;;;;5.47;4.97;;;19.40;99.90;;;;;;5069840;28;21075;-74
2022/05/08 08:33:52;;;;;;;4.57;4.18;;;19.60;99.90;;;;;;5064772;28;20202;-76
2022/05/08 08:36:19;;;;;;;5.05;4.65;;;19.60;99.90;;;;;;5067349;28;20619;-75
2022/05/08 08:38:49;;;;;;;4.70;4.22;;;19.40;99.90;;;;;;5057901;28;20206;-74
2022/05/08 08:41:16;;;;;;;4.75;4.15;;;19.60;99.90;;;;;;5068512;28;20205;-73
2022/05/08 08:49:23;;;;;;;7.78;3.95;;;19.60;99.90;;;;;;5010806;28;20258;-69
2022/05/08 08:51:51;;;;;;;5.97;4.18;;;19.70;99.90;;;;;;5069851;28;20256;-72
2022/05/08 08:54:21;;;;;;;5.82;4.40;;;20.00;99.90;;;;;;5069905;28;20739;-72
2022/05/08 08:56:49;;;;;;;8.40;4.95;;;19.80;99.90;;;;;;5070108;28;20563;-76
2022/05/08 08:59:17;;;;;;;6.28;5.22;;;20.10;99.90;;;;;;5069691;28;20670;-70
2022/05/08 09:01:45;;;;;;;6.55;5.68;;;20.20;99.90;;;;;;5069668;28;20261;-73
2022/05/08 09:04:13;;;;;;;5.93;4.97;;;20.40;99.90;;;;;;5068868;28;20248;-69
2022/05/08 09:06:41;;;;;;;7.43;4.65;;;20.50;99.90;;;;;;5070350;28;20638;-70
2022/05/08 09:09:27;;;;;;;9.07;4.78;;;20.90;99.90;;;;;;5069814;28;20199;-69
2022/05/08 09:11:55;;;;;;;6.07;5.28;;;22.50;99.90;;;;;;5070100;28;20206;-69
2022/05/08 09:14:33;;;;;;;7.38;4.68;;;22.30;99.90;;;;;;5069388;28;20202;-71
2022/05/08 09:17:01;;;;;;;4.95;4.47;;;21.90;99.90;;;;;;5067521;28;20250;-71
2022/05/08 09:19:37;;;;;;;5.03;3.92;;;21.90;99.90;;;;;;5068741;28;20608;-71
2022/05/08 09:22:05;;;;;;;4.97;4.57;;;23.20;99.90;;;;;;5071890;28;20226;-73
2022/05/08 09:24:35;;;;;;;6.57;5.22;;;24.20;99.90;;;;;;5073526;28;20216;-72
2022/05/08 09:27:13;;;;;;;7.85;4.90;;;23.30;99.90;;;;;;5073667;28;20245;-70
2022/05/08 09:29:40;;;;;;;4.93;4.38;;;25.70;99.90;;;;;;5073498;28;20206;-70
2022/05/08 09:32:08;;;;;;;5.45;4.65;;;28.20;99.90;;;;;;5073617;28;20210;-71
2022/05/08 09:34:57;;;;;;;4.47;4.03;;;28.90;99.90;;;;;;5073865;28;20198;-72
2022/05/08 09:37:24;;;;;;;5.03;4.55;;;28.80;99.90;;;;;;5072893;28;20275;-72
2022/05/08 09:39:53;;;;;;;5.05;4.35;;;30.00;99.90;;;;;;5073100;28;20202;-73
2022/05/08 09:42:39;;;;;;;5.72;5.18;;;30.00;99.90;;;;;;5073074;28;20230;-72
2022/05/08 09:45:08;;;;;;;9.52;4.57;;;30.70;99.90;;;;;;5073462;28;20202;-71
2022/05/08 09:47:42;;;;;;;4.85;4.47;;;30.80;99.90;;;;;;5073427;28;20210;-71
2022/05/08 09:50:10;;;;;;;8.98;3.92;;;31.10;99.90;;;;;;5072610;28;20208;-71
2022/05/08 09:52:39;;;;;;;6.25;4.22;;;31.30;99.90;;;;;;5073318;28;20202;-70
2022/05/08 09:55:10;;;;;;;6.18;4.40;;;31.50;99.90;;;;;;5073307;28;20587;-72
2022/05/08 09:57:39;;;;;;;5.05;4.28;;;31.00;99.90;;;;;;5072659;28;20615;-75
2022/05/08 10:00:08;;;;;;;5.35;4.85;;;31.80;99.90;;;;;;5073169;28;20208;-71
2022/05/08 10:02:36;;;;;;;5.60;5.18;;;31.60;99.90;;;;;;5072997;28;20229;-77
2022/05/08 10:05:04;;;;;;;5.05;4.65;;;31.30;99.90;;;;;;5073087;28;20206;-73
2022/05/08 10:07:33;;;;;;;6.05;4.72;;;29.80;99.90;;;;;;5072753;28;20674;-73
2022/05/08 10:15:36;;;;;;;5.88;5.38;;;29.70;99.90;;;;;;5038483;28;20254;-72
2022/05/08 10:18:24;;;;;;;5.53;5.03;;;30.80;99.90;;;;;;5070933;28;20283;-72
2022/05/08 10:21:02;;;;;;;4.90;4.50;;;31.30;99.90;;;;;;5059475;28;20255;-71
2022/05/08 10:23:36;;;;;;;5.80;5.18;;;32.00;99.90;;;;;;5058090;28;20237;-71
2022/05/08 10:26:16;;;;;;;6.60;5.70;;;31.90;99.90;;;;;;5068310;28;20214;-73
2022/05/08 10:29:13;;;;;;;7.55;4.88;;;31.70;99.90;;;;;;5072552;28;20197;-72
2022/05/08 10:31:42;;;;;;;5.28;4.82;;;31.00;99.90;;;;;;5059729;28;20670;-73
2022/05/08 10:34:09;;;;;;;5.32;4.93;;;26.00;99.90;;;;;;5051634;28;20206;-71
2022/05/08 10:36:37;;;;;;;5.78;5.28;;;23.90;99.90;;;;;;5052373;28;20215;-72
2022/05/08 10:39:38;;;;;;;8.02;5.95;;;22.80;99.90;;;;;;5052531;28;20210;-76
2022/05/08 10:42:05;;;;;;;5.05;4.65;;;22.50;99.90;;;;;;5052120;28;20208;-75
2022/05/08 10:44:39;;;;;;;6.32;4.65;;;22.30;99.90;;;;;;5052256;28;20294;-71
2022/05/08 10:47:43;;;;;;;5.63;4.47;;;22.50;99.90;;;;;;5060166;28;20691;-72
2022/05/08 10:50:11;;;;;;;5.72;4.30;;;23.00;99.90;;;;;;5065687;28;20741;-71
2022/05/08 10:52:40;;;;;;;3.95;3.50;;;22.60;99.90;;;;;;5064865;28;20211;-71
2022/05/08 10:55:12;;;;;;;3.90;3.47;;;22.60;99.90;;;;;;5065170;28;20210;-70
2022/05/08 10:57:40;;;;;;;4.90;4.28;;;22.70;99.90;;;;;;5071581;28;20216;-69
2022/05/08 11:00:11;;;;;;;4.95;4.47;;;22.70;99.90;;;;;;5071039;28;20666;-69
2022/05/08 11:02:43;;;;;;;9.85;5.47;;;22.60;99.90;;;;;;5071580;28;20233;-68
2022/05/08 11:05:11;;;;;;;5.18;4.50;;;22.90;99.90;;;;;;5070652;28;20339;-68
2022/05/08 11:07:39;;;;;;;4.18;3.83;;;22.30;99.90;;;;;;5071885;28;20206;-68
2022/05/08 11:10:15;;;;;;;4.43;3.70;;;22.30;99.90;;;;;;5071580;28;20206;-68
2022/05/08 11:13:00;;;;;;;3.05;2.75;;;22.70;99.90;;;;;;5065005;28;20210;-70
2022/05/08 11:15:29;;;;;;;3.83;3.45;;;22.70;99.90;;;;;;5056275;28;21179;-69
2022/05/08 11:18:03;;;;;;;8.35;3.85;;;22.60;99.90;;;;;;5056952;28;20214;-68
2022/05/08 11:20:31;;;;;;;4.10;3.70;;;22.80;99.90;;;;;;5049871;28;20658;-68
2022/05/08 11:22:59;;;;;;;4.82;3.70;;;22.40;99.90;;;;;;5052045;28;20233;-68
2022/05/08 11:25:26;;;;;;;5.70;3.50;;;22.80;99.90;;;;;;5050924;28;20207;-68
2022/05/08 11:27:53;;;;;;;5.63;4.40;;;22.40;99.90;;;;;;5067862;28;20681;-68
2022/05/08 11:30:30;;;;;;;4.80;4.40;;;23.00;99.90;;;;;;5063621;28;20263;-69
2022/05/08 11:36:06;;;;;;;6.18;3.45;;;23.30;99.90;;;;;;5064688;28;20213;-69
2022/05/08 11:38:41;;;;;;;3.78;3.20;;;23.70;99.90;;;;;;5070801;28;20220;-69
2022/05/08 11:41:10;;;;;;;4.85;3.38;;;23.30;99.90;;;;;;5070844;28;20201;-69
2022/05/08 11:43:41;;;;;;;3.65;3.03;;;23.30;99.90;;;;;;5071011;28;20291;-69
2022/05/08 11:46:15;;;;;;;4.05;3.72;;;23.40;99.90;;;;;;5069697;28;20293;-69
2022/05/08 11:48:43;;;;;;;4.22;3.53;;;23.90;99.90;;;;;;5071012;28;20209;-69
2022/05/08 11:51:11;;;;;;;4.35;3.60;;;24.40;99.90;;;;;;5070448;28;20202;-69
2022/05/08 11:53:42;;;;;;;3.22;2.88;;;24.30;99.90;;;;;;5070940;28;20206;-70
2022/05/08 11:56:32;;;;;;;2.97;2.72;;;23.70;99.90;;;;;;5070628;28;20202;-71
2022/05/08 11:59:00;;;;;;;2.97;2.75;;;23.60;99.90;;;;;;5048830;28;20250;-70
2022/05/08 12:01:31;;;;;;;3.40;2.30;;;24.10;99.90;;;;;;5055587;28;20210;-69
2022/05/08 12:04:19;;;;;;;3.40;3.10;;;24.60;99.90;;;;;;5067213;28;20283;-69
2022/05/08 12:07:00;;;;;;;3.40;3.10;;;25.10;99.90;;;;;;5064145;28;20392;-69
2022/05/08 12:09:28;;;;;;;3.83;3.33;;;24.60;99.90;;;;;;5051566;28;20214;-69
2022/05/08 12:11:55;;;;;;;2.67;2.47;;;24.90;99.90;;;;;;5064490;28;20238;-70
2022/05/08 12:14:32;;;;;;;3.67;2.65;;;24.40;99.90;;;;;;5061867;28;20274;-70
2022/05/08 12:17:04;;;;;;;5.15;3.10;;;23.60;99.90;;;;;;5067496;28;20243;-70
2022/05/08 12:19:31;;;;;;;5.10;2.90;;;24.00;99.90;;;;;;5050324;28;20210;-69
2022/05/08 12:21:58;;;;;;;2.53;2.33;;;24.20;99.90;;;;;;5061947;28;20307;-70
2022/05/08 12:24:25;;;;;;;3.78;2.75;;;24.60;99.90;;;;;;5069970;28;20287;-69
2022/05/08 12:26:53;;;;;;;2.83;2.63;;;24.70;99.90;;;;;;5070555;28;20202;-68
2022/05/08 12:29:22;;;;;;;3.05;2.83;;;24.90;99.90;;;;;;5070204;28;20669;-68
2022/05/08 12:31:51;;;;;;;3.53;2.63;;;24.50;99.90;;;;;;5070639;28;20251;-68
2022/05/08 12:34:20;;;;;;;3.25;2.35;;;25.00;99.90;;;;;;5066181;28;20701;-68
2022/05/08 12:36:49;;;;;;;2.97;2.63;;;24.50;99.90;;;;;;5051729;28;20230;-70
2022/05/08 12:39:17;;;;;;;2.88;2.65;;;23.60;99.90;;;;;;5051033;28;20674;-70
2022/05/08 12:41:44;;;;;;;3.47;2.83;;;23.70;99.90;;;;;;5051384;28;20203;-68
2022/05/08 12:44:11;;;;;;;3.08;2.35;;;23.70;99.90;;;;;;5066774;28;20226;-68
2022/05/08 12:46:38;;;;;;;2.65;2.45;;;23.70;99.90;;;;;;5058017;28;20210;-71
2022/05/08 12:49:06;;;;;;;3.22;2.00;;;23.50;99.90;;;;;;5063957;28;20247;-70
2022/05/08 12:51:36;;;;;;;2.42;2.22;;;23.20;99.90;;;;;;5059398;28;20213;-68
2022/05/08 12:54:04;;;;;;;1.83;1.70;;;23.60;99.90;;;;;;5059055;28;20219;-71
2022/05/08 12:56:31;;;;;;;2.17;1.98;;;24.20;99.90;;;;;;5057899;28;20232;-68
2022/05/08 13:01:43;;;;;;;4.97;2.22;;;24.20;99.90;;;;;;5074013;28;20208;-69
2022/05/08 13:04:10;;;;;;;2.50;2.30;;;24.30;99.90;;;;;;5064501;28;20650;-68
2022/05/08 13:06:39;;;;;;;2.65;2.05;;;24.50;99.90;;;;;;5061833;28;20215;-71
2022/05/08 13:09:07;;;;;;;2.80;2.33;;;24.30;99.90;;;;;;5073181;28;20279;-73
2022/05/08 13:11:35;;;;;;;4.25;2.90;;;23.90;99.90;;;;;;5057081;28;20221;-68
2022/05/08 13:14:02;;;;;;;2.03;1.80;;;24.30;99.90;;;;;;5064196;28;20301;-71
2022/05/08 13:16:29;;;;;;;2.80;1.83;;;23.80;99.90;;;;;;5070683;28;20557;-73
2022/05/08 13:18:56;;;;;;;3.85;2.72;;;23.30;99.90;;;;;;5064972;28;20721;-68
2022/05/08 13:21:25;;;;;;;2.20;1.90;;;23.10;99.90;;;;;;5062014;28;20259;-70
2022/05/08 13:23:53;;;;;;;2.17;1.90;;;23.80;99.90;;;;;;5063638;28;20226;-74
2022/05/08 13:26:20;;;;;;;1.80;1.70;;;24.40;99.90;;;;;;5072048;28;20267;-69
2022/05/08 13:28:47;;;;;;;1.88;1.77;;;24.50;99.90;;;;;;5072103;28;20630;-68